Flight Track Log - Related Links

Times and Time Zones

All times are in EDT time to prevent confusion due to time zone crossing. See the CTL78 flight status page for this flight to view local times or setup timezone preferences in your user account.

Time Position Orientation Groundspeed Altitude Reporting Facility
EDT Latitude Longitude Course Direction KTS MPH feet Rate Location/Type
Fri 05:53:45 PM 42.2594 -83.5458 307° West 138 159 1,700  Level Cleveland Center
Fri 05:54:45 PM 42.2728 -83.5942 290° West 130 150 3,000 1,082 Climbing Cleveland Center
Fri 05:55:47 PM 42.2653 -83.6361 256° West 138 159 3,900 836 Climbing Cleveland Center
Fri 05:56:47 PM 42.2433 -83.5983 128° Southeast 129 148 4,700 590 Climbing Cleveland Center
Fri 05:57:49 PM 42.2281 -83.5500 113° Southeast 146 168 5,100 195 Climbing Cleveland Center
Fri 05:58:50 PM 42.2108 -83.4931 112° Southeast 169 194 5,100  Level Cleveland Center
Fri 05:59:51 PM 42.1914 -83.4333 114° Southeast 166 191 5,100  Level Cleveland Center
Fri 06:00:46 PM 42.1739 -83.3794 114° Southeast 169 194 5,100 -52 Level Cleveland Center
Fri 06:01:47 PM 42.1503 -83.3281 122° Southeast 165 190 5,000  Descending Cleveland Center
Fri 06:02:49 PM 42.1306 -83.2711 115° Southeast 166 191 5,100  Climbing Cleveland Center
Fri 06:03:50 PM 42.1092 -83.2142 117° Southeast 170 196 5,000  Descending Cleveland Center
Fri 06:04:51 PM 42.0894 -83.1547 114° Southeast 169 194 5,100 49 Climbing Cleveland Center
Fri 06:05:52 PM 42.0678 -83.0978 117° Southeast 169 194 5,100  Level Cleveland Center
Fri 06:06:53 PM 42.0464 -83.0356 115° Southeast 171 197 5,100  Level Cleveland Center
Fri 06:08:00 PM 42.0225 -82.9731 117° Southeast 170 196 5,100  Level Cleveland Center
Fri 06:08:23 PM 42.0147 -82.9558 121° Southeast 171 197 5,100  Level Cleveland Center
Fri 06:09:18 PM 41.9969 -82.9050 115° Southeast 173 199 5,100  Level Cleveland Center
Fri 06:10:19 PM 41.9731 -82.8483 120° Southeast 173 199 5,100  Level Cleveland Center
Fri 06:11:26 PM 41.9431 -82.7831 122° Southeast 174 200 5,100  Level Cleveland Center
Fri 06:12:21 PM 41.9211 -82.7292 119° Southeast 173 199 5,100  Level Cleveland Center
Fri 06:13:22 PM 41.9014 -82.6700 114° Southeast 175 201 5,100 -50 Level Cleveland Center
Fri 06:14:22 PM 41.8794 -82.6133 117° Southeast 173 199 5,000  Descending Cleveland Center
Fri 06:15:23 PM 41.8533 -82.5483 118° Southeast 177 204 5,100 49 Climbing Cleveland Center
Fri 06:16:24 PM 41.8317 -82.4892 116° Southeast 174 200 5,100  Level Cleveland Center
Fri 06:17:19 PM 41.8094 -82.4414 122° Southeast 177 204 5,100 -207 Level Cleveland Center
Fri 06:18:20 PM 41.7853 -82.3792 117° Southeast 180 207 4,700 -443 Descending Cleveland Center
Fri 06:19:21 PM 41.7572 -82.3200 122° Southeast 191 220 4,200 -470 Descending Cleveland Center
Fri 06:20:15 PM 41.7372 -82.2639 116° Southeast 187 215 3,800 -522 Descending Cleveland Center
Fri 06:21:16 PM 41.7108 -82.2047 121° Southeast 182 209 3,200 -344 Descending Cleveland Center
Fri 06:22:17 PM 41.6886 -82.1458 117° Southeast 174 200 3,100 -281 Descending Cleveland Center
Fri 06:23:24 PM 41.6644 -82.0869 119° Southeast 170 196 2,600 -283 Descending Cleveland Center
Fri 06:24:24 PM 41.6381 -82.0278 121° Southeast 173 199 2,500 -52 Descending Cleveland Center
Fri 06:25:19 PM 41.6178 -81.9831 121° Southeast 163 188 2,500 -259 Level Cleveland Center
Fri 06:26:20 PM 41.5894 -81.9242 123° Southeast 175 201 2,000 -375 Descending Cleveland Center
Fri 06:27:27 PM 41.5650 -81.8653 119° Southeast 169 194 1,700 -189 Descending Cleveland Center
Fri 06:28:27 PM 41.5406 -81.8147 123° Southeast 161 185 1,600 -99 Descending Cleveland Center
Fri 06:29:28 PM 41.5203 -81.7644 118° Southeast 156 180 1,500 -197 Descending Cleveland Center
Fri 06:30:29 PM 41.5042 -81.7172 114° Southeast 124 143 1,200 -295 Descending Cleveland Center
Fri 06:32:00 PM 41.5175 -81.6833 108° East  Level Estimated
Fri 06:39:00 PM 41.5175 -81.6833 108° East  Level Estimated

Login

Don't have an account? Register now (free) for customized features, flight alerts, and more!